sensor_id;sensor_type;location;lat;lon;timestamp;pressure;altitude;pressure_sealevel;temperature;humidity
61434;BME280;47300;46.192;9.000;2022-11-23T00:00:58;96606.97;;;10.19;34.69
61434;BME280;47300;46.192;9.000;2022-11-23T00:03:23;96611.03;;;10.30;33.96
61434;BME280;47300;46.192;9.000;2022-11-23T00:05:48;96599.19;;;10.16;35.50
61434;BME280;47300;46.192;9.000;2022-11-23T00:08:14;96624.47;;;10.19;34.79
61434;BME280;47300;46.192;9.000;2022-11-23T00:10:39;96607.88;;;10.18;34.24
61434;BME280;47300;46.192;9.000;2022-11-23T00:13:04;96609.59;;;10.48;32.57
61434;BME280;47300;46.192;9.000;2022-11-23T00:15:30;96615.69;;;10.48;33.50
61434;BME280;47300;46.192;9.000;2022-11-23T00:17:57;96612.41;;;10.94;30.80
61434;BME280;47300;46.192;9.000;2022-11-23T00:20:24;96620.06;;;10.75;33.32
61434;BME280;47300;46.192;9.000;2022-11-23T00:22:49;96623.91;;;10.64;33.82
61434;BME280;47300;46.192;9.000;2022-11-23T00:25:15;96630.59;;;10.48;34.61
61434;BME280;47300;46.192;9.000;2022-11-23T00:27:40;96628.47;;;10.31;35.95
61434;BME280;47300;46.192;9.000;2022-11-23T00:30:06;96641.09;;;9.89;38.37
61434;BME280;47300;46.192;9.000;2022-11-23T00:32:31;96633.38;;;9.84;36.90
61434;BME280;47300;46.192;9.000;2022-11-23T00:34:56;96620.56;;;9.75;36.92
61434;BME280;47300;46.192;9.000;2022-11-23T00:37:22;96641.25;;;9.84;37.57
61434;BME280;47300;46.192;9.000;2022-11-23T00:39:47;96648.50;;;9.75;36.94
61434;BME280;47300;46.192;9.000;2022-11-23T00:42:12;96651.94;;;9.77;37.00
61434;BME280;47300;46.192;9.000;2022-11-23T00:44:38;96650.63;;;9.62;38.81
61434;BME280;47300;46.192;9.000;2022-11-23T00:47:03;96658.47;;;9.62;37.31
61434;BME280;47300;46.192;9.000;2022-11-23T00:49:28;96657.66;;;9.60;37.81
61434;BME280;47300;46.192;9.000;2022-11-23T00:51:54;96654.72;;;9.72;36.44
61434;BME280;47300;46.192;9.000;2022-11-23T00:54:19;96656.75;;;9.62;37.98
61434;BME280;47300;46.192;9.000;2022-11-23T00:56:44;96665.00;;;9.47;39.32
61434;BME280;47300;46.192;9.000;2022-11-23T00:59:10;96673.63;;;9.82;36.80
61434;BME280;47300;46.192;9.000;2022-11-23T01:01:35;96672.81;;;9.50;39.69
61434;BME280;47300;46.192;9.000;2022-11-23T01:04:05;96661.00;;;9.35;39.39
61434;BME280;47300;46.192;9.000;2022-11-23T01:06:33;96678.63;;;9.28;38.47
61434;BME280;47300;46.192;9.000;2022-11-23T01:09:10;96673.28;;;9.33;38.75
61434;BME280;47300;46.192;9.000;2022-11-23T01:11:36;96671.09;;;9.49;38.71
61434;BME280;47300;46.192;9.000;2022-11-23T01:14:02;96678.25;;;9.42;39.92
61434;BME280;47300;46.192;9.000;2022-11-23T01:16:30;96684.56;;;9.35;40.04
61434;BME280;47300;46.192;9.000;2022-11-23T01:18:58;96677.72;;;9.29;40.13
61434;BME280;47300;46.192;9.000;2022-11-23T01:21:24;96684.28;;;9.12;41.31
61434;BME280;47300;46.192;9.000;2022-11-23T01:23:51;96676.28;;;9.17;38.91
61434;BME280;47300;46.192;9.000;2022-11-23T01:26:16;96677.13;;;9.19;39.02
61434;BME280;47300;46.192;9.000;2022-11-23T01:28:42;96672.94;;;9.12;39.65
61434;BME280;47300;46.192;9.000;2022-11-23T01:31:13;96676.56;;;9.06;39.62
61434;BME280;47300;46.192;9.000;2022-11-23T01:33:40;96690.00;;;8.94;41.16
61434;BME280;47300;46.192;9.000;2022-11-23T01:36:17;96674.38;;;8.91;40.40
61434;BME280;47300;46.192;9.000;2022-11-23T01:38:44;96692.72;;;8.89;40.34
61434;BME280;47300;46.192;9.000;2022-11-23T01:41:18;96691.63;;;8.98;40.85
61434;BME280;47300;46.192;9.000;2022-11-23T01:43:44;96694.25;;;8.98;40.88
61434;BME280;47300;46.192;9.000;2022-11-23T01:46:10;96689.50;;;8.79;40.51
61434;BME280;47300;46.192;9.000;2022-11-23T01:48:48;96678.28;;;8.74;41.68
61434;BME280;47300;46.192;9.000;2022-11-23T01:51:22;96691.41;;;8.73;39.49
61434;BME280;47300;46.192;9.000;2022-11-23T01:53:51;96699.13;;;8.77;41.68
61434;BME280;47300;46.192;9.000;2022-11-23T01:56:22;96693.22;;;8.69;41.13
61434;BME280;47300;46.192;9.000;2022-11-23T01:58:53;96688.78;;;8.73;42.29
61434;BME280;47300;46.192;9.000;2022-11-23T02:01:20;96705.38;;;8.72;41.80
61434;BME280;47300;46.192;9.000;2022-11-23T02:03:47;96703.47;;;8.78;41.88
61434;BME280;47300;46.192;9.000;2022-11-23T02:06:16;96711.69;;;8.63;43.40
61434;BME280;47300;46.192;9.000;2022-11-23T02:08:42;96706.69;;;8.53;42.44
61434;BME280;47300;46.192;9.000;2022-11-23T02:11:09;96714.38;;;8.60;41.21
61434;BME280;47300;46.192;9.000;2022-11-23T02:13:35;96705.03;;;8.49;42.69
61434;BME280;47300;46.192;9.000;2022-11-23T02:16:01;96724.28;;;8.45;43.60
61434;BME280;47300;46.192;9.000;2022-11-23T02:18:29;96715.44;;;8.51;42.53
61434;BME280;47300;46.192;9.000;2022-11-23T02:20:59;96720.56;;;8.57;41.14
61434;BME280;47300;46.192;9.000;2022-11-23T02:23:35;96722.28;;;8.58;42.90
61434;BME280;47300;46.192;9.000;2022-11-23T02:26:10;96710.22;;;8.51;42.23
61434;BME280;47300;46.192;9.000;2022-11-23T02:28:51;96714.72;;;8.44;43.71
61434;BME280;47300;46.192;9.000;2022-11-23T02:31:18;96726.22;;;8.37;43.32
61434;BME280;47300;46.192;9.000;2022-11-23T02:33:43;96720.09;;;8.36;43.57
61434;BME280;47300;46.192;9.000;2022-11-23T02:38:54;96730.47;;;8.41;44.21
61434;BME280;47300;46.192;9.000;2022-11-23T02:41:21;96743.72;;;8.33;43.76
61434;BME280;47300;46.192;9.000;2022-11-23T02:43:47;96731.59;;;8.29;43.48
61434;BME280;47300;46.192;9.000;2022-11-23T02:46:16;96729.75;;;8.33;42.75
61434;BME280;47300;46.192;9.000;2022-11-23T02:48:41;96733.25;;;8.33;42.35
61434;BME280;47300;46.192;9.000;2022-11-23T02:51:07;96734.91;;;8.37;42.51
61434;BME280;47300;46.192;9.000;2022-11-23T02:53:32;96731.50;;;8.34;42.52
61434;BME280;47300;46.192;9.000;2022-11-23T02:55:57;96738.47;;;8.33;43.05
61434;BME280;47300;46.192;9.000;2022-11-23T02:58:22;96737.59;;;8.34;42.44
61434;BME280;47300;46.192;9.000;2022-11-23T03:00:48;96740.38;;;8.26;42.26
61434;BME280;47300;46.192;9.000;2022-11-23T03:03:13;96740.28;;;8.30;43.36
61434;BME280;47300;46.192;9.000;2022-11-23T03:05:38;96751.63;;;8.30;41.85
61434;BME280;47300;46.192;9.000;2022-11-23T03:08:04;96755.00;;;8.35;42.27
61434;BME280;47300;46.192;9.000;2022-11-23T03:10:29;96747.22;;;8.32;42.68
61434;BME280;47300;46.192;9.000;2022-11-23T03:12:55;96753.44;;;8.26;43.14
61434;BME280;47300;46.192;9.000;2022-11-23T03:15:22;96748.50;;;8.13;43.65
61434;BME280;47300;46.192;9.000;2022-11-23T03:17:47;96750.22;;;8.14;43.01
61434;BME280;47300;46.192;9.000;2022-11-23T03:20:12;96748.41;;;8.17;42.53
61434;BME280;47300;46.192;9.000;2022-11-23T03:22:38;96744.91;;;8.18;42.79
61434;BME280;47300;46.192;9.000;2022-11-23T03:25:04;96756.09;;;8.25;42.55
61434;BME280;47300;46.192;9.000;2022-11-23T03:27:29;96755.91;;;8.33;41.40
61434;BME280;47300;46.192;9.000;2022-11-23T03:29:57;96757.66;;;8.34;42.21
61434;BME280;47300;46.192;9.000;2022-11-23T03:32:23;96765.66;;;8.26;43.02
61434;BME280;47300;46.192;9.000;2022-11-23T03:34:48;96762.28;;;8.21;43.21
61434;BME280;47300;46.192;9.000;2022-11-23T03:37:13;96764.91;;;8.21;43.02
61434;BME280;47300;46.192;9.000;2022-11-23T03:39:38;96757.13;;;8.18;42.39
61434;BME280;47300;46.192;9.000;2022-11-23T03:42:04;96760.63;;;8.17;42.67
61434;BME280;47300;46.192;9.000;2022-11-23T03:44:29;96752.91;;;8.10;43.28
61434;BME280;47300;46.192;9.000;2022-11-23T03:46:54;96759.69;;;8.19;42.68
61434;BME280;47300;46.192;9.000;2022-11-23T03:49:20;96754.41;;;8.22;41.37
61434;BME280;47300;46.192;9.000;2022-11-23T03:51:45;96754.25;;;8.30;41.49
61434;BME280;47300;46.192;9.000;2022-11-23T03:54:10;96758.09;;;8.12;41.40
61434;BME280;47300;46.192;9.000;2022-11-23T03:56:35;96752.69;;;8.21;41.98
61434;BME280;47300;46.192;9.000;2022-11-23T03:59:01;96746.75;;;8.15;42.41
61434;BME280;47300;46.192;9.000;2022-11-23T04:01:26;96742.34;;;8.17;43.36
61434;BME280;47300;46.192;9.000;2022-11-23T04:03:51;96744.81;;;8.23;42.66
61434;BME280;47300;46.192;9.000;2022-11-23T04:06:17;96741.47;;;8.16;41.80
61434;BME280;47300;46.192;9.000;2022-11-23T04:08:42;96753.63;;;8.17;41.53
61434;BME280;47300;46.192;9.000;2022-11-23T04:11:07;96759.56;;;8.25;41.55
61434;BME280;47300;46.192;9.000;2022-11-23T04:13:33;96763.19;;;8.20;42.21
61434;BME280;47300;46.192;9.000;2022-11-23T04:15:58;96755.22;;;8.24;41.56
61434;BME280;47300;46.192;9.000;2022-11-23T04:18:23;96765.06;;;8.11;41.83
61434;BME280;47300;46.192;9.000;2022-11-23T04:20:49;96751.31;;;8.03;41.67
61434;BME280;47300;46.192;9.000;2022-11-23T04:23:14;96753.22;;;7.96;42.42
61434;BME280;47300;46.192;9.000;2022-11-23T04:25:39;96747.06;;;7.99;41.70
61434;BME280;47300;46.192;9.000;2022-11-23T04:28:04;96741.75;;;8.04;40.94
61434;BME280;47300;46.192;9.000;2022-11-23T04:30:30;96747.09;;;7.97;42.70
61434;BME280;47300;46.192;9.000;2022-11-23T04:32:55;96746.00;;;8.08;42.36
61434;BME280;47300;46.192;9.000;2022-11-23T04:35:20;96745.38;;;7.96;43.31
61434;BME280;47300;46.192;9.000;2022-11-23T04:37:46;96741.09;;;7.92;42.15
61434;BME280;47300;46.192;9.000;2022-11-23T04:40:12;96742.03;;;7.90;42.34
61434;BME280;47300;46.192;9.000;2022-11-23T04:42:37;96744.59;;;7.91;42.69
61434;BME280;47300;46.192;9.000;2022-11-23T04:45:03;96736.94;;;7.82;42.03
61434;BME280;47300;46.192;9.000;2022-11-23T04:47:28;96733.78;;;7.67;43.34
61434;BME280;47300;46.192;9.000;2022-11-23T04:49:54;96742.50;;;7.66;43.13
61434;BME280;47300;46.192;9.000;2022-11-23T04:52:19;96736.59;;;7.55;44.19
61434;BME280;47300;46.192;9.000;2022-11-23T04:54:44;96740.22;;;7.49;43.67
61434;BME280;47300;46.192;9.000;2022-11-23T04:57:10;96739.53;;;7.39;44.13
61434;BME280;47300;46.192;9.000;2022-11-23T04:59:35;96741.16;;;7.45;44.17
61434;BME280;47300;46.192;9.000;2022-11-23T05:02:01;96731.63;;;7.44;44.43
61434;BME280;47300;46.192;9.000;2022-11-23T05:04:26;96735.50;;;7.68;44.70
61434;BME280;47300;46.192;9.000;2022-11-23T05:06:52;96730.56;;;7.53;43.94
61434;BME280;47300;46.192;9.000;2022-11-23T05:09:17;96734.00;;;7.55;44.36
61434;BME280;47300;46.192;9.000;2022-11-23T05:11:42;96733.34;;;7.44;44.85
61434;BME280;47300;46.192;9.000;2022-11-23T05:14:08;96734.09;;;7.50;44.83
61434;BME280;47300;46.192;9.000;2022-11-23T05:16:33;96738.50;;;7.47;44.47
61434;BME280;47300;46.192;9.000;2022-11-23T05:18:58;96746.25;;;7.51;43.75
61434;BME280;47300;46.192;9.000;2022-11-23T05:21:24;96740.34;;;7.43;44.45
61434;BME280;47300;46.192;9.000;2022-11-23T05:23:49;96740.22;;;7.49;43.42
61434;BME280;47300;46.192;9.000;2022-11-23T05:26:14;96744.75;;;7.39;43.53
61434;BME280;47300;46.192;9.000;2022-11-23T05:28:40;96740.34;;;7.43;42.94
61434;BME280;47300;46.192;9.000;2022-11-23T05:31:05;96743.91;;;7.39;43.93
61434;BME280;47300;46.192;9.000;2022-11-23T05:33:30;96743.72;;;7.47;44.35
61434;BME280;47300;46.192;9.000;2022-11-23T05:35:55;96759.81;;;7.23;45.57
61434;BME280;47300;46.192;9.000;2022-11-23T05:38:21;96763.25;;;7.27;46.27
61434;BME280;47300;46.192;9.000;2022-11-23T05:40:46;96764.31;;;7.14;45.86
61434;BME280;47300;46.192;9.000;2022-11-23T05:43:12;96767.09;;;7.06;47.74
61434;BME280;47300;46.192;9.000;2022-11-23T05:45:37;96770.78;;;6.92;48.50
61434;BME280;47300;46.192;9.000;2022-11-23T05:48:03;96775.03;;;6.98;47.93
61434;BME280;47300;46.192;9.000;2022-11-23T05:50:29;96778.50;;;6.99;47.72
61434;BME280;47300;46.192;9.000;2022-11-23T05:52:56;96775.31;;;6.83;48.95
61434;BME280;47300;46.192;9.000;2022-11-23T05:55:21;96780.78;;;6.65;49.50
61434;BME280;47300;46.192;9.000;2022-11-23T05:57:47;96781.53;;;6.72;48.58
61434;BME280;47300;46.192;9.000;2022-11-23T06:00:12;96782.56;;;6.60;49.73
61434;BME280;47300;46.192;9.000;2022-11-23T06:02:38;96785.94;;;6.67;49.45
61434;BME280;47300;46.192;9.000;2022-11-23T06:05:04;96788.63;;;6.62;49.85
61434;BME280;47300;46.192;9.000;2022-11-23T06:07:32;96803.41;;;6.63;50.87
61434;BME280;47300;46.192;9.000;2022-11-23T06:09:58;96797.38;;;6.58;49.83
61434;BME280;47300;46.192;9.000;2022-11-23T06:12:23;96795.88;;;6.42;52.11
61434;BME280;47300;46.192;9.000;2022-11-23T06:14:49;96794.28;;;6.30;51.90
61434;BME280;47300;46.192;9.000;2022-11-23T06:17:14;96801.31;;;6.23;50.45
61434;BME280;47300;46.192;9.000;2022-11-23T06:19:40;96812.66;;;6.20;51.97
61434;BME280;47300;46.192;9.000;2022-11-23T06:22:05;96814.44;;;6.18;51.00
61434;BME280;47300;46.192;9.000;2022-11-23T06:24:30;96823.22;;;6.10;52.31
61434;BME280;47300;46.192;9.000;2022-11-23T06:26:56;96820.84;;;5.88;51.53
61434;BME280;47300;46.192;9.000;2022-11-23T06:29:21;96826.81;;;5.96;50.75
61434;BME280;47300;46.192;9.000;2022-11-23T06:31:47;96843.22;;;6.06;50.02
61434;BME280;47300;46.192;9.000;2022-11-23T06:34:12;96838.06;;;6.00;51.71
61434;BME280;47300;46.192;9.000;2022-11-23T06:36:38;96835.75;;;5.75;52.45
61434;BME280;47300;46.192;9.000;2022-11-23T06:39:03;96846.78;;;5.97;49.66
61434;BME280;47300;46.192;9.000;2022-11-23T06:41:29;96854.75;;;5.83;51.93
61434;BME280;47300;46.192;9.000;2022-11-23T06:43:54;96863.34;;;5.90;51.44
61434;BME280;47300;46.192;9.000;2022-11-23T06:46:20;96869.31;;;6.00;49.12
61434;BME280;47300;46.192;9.000;2022-11-23T06:48:45;96874.56;;;5.98;51.31
61434;BME280;47300;46.192;9.000;2022-11-23T06:51:12;96880.13;;;5.61;52.18
61434;BME280;47300;46.192;9.000;2022-11-23T06:53:37;96881.63;;;5.85;51.90
61434;BME280;47300;46.192;9.000;2022-11-23T06:56:03;96886.03;;;5.78;51.55
61434;BME280;47300;46.192;9.000;2022-11-23T06:58:29;96892.31;;;5.57;55.23
61434;BME280;47300;46.192;9.000;2022-11-23T07:00:59;96894.84;;;5.65;49.88
61434;BME280;47300;46.192;9.000;2022-11-23T07:03:25;96898.09;;;5.86;49.39
61434;BME280;47300;46.192;9.000;2022-11-23T07:05:50;96900.50;;;6.11;47.41
61434;BME280;47300;46.192;9.000;2022-11-23T07:08:16;96914.34;;;6.13;50.12
61434;BME280;47300;46.192;9.000;2022-11-23T07:10:41;96911.81;;;6.06;50.15
61434;BME280;47300;46.192;9.000;2022-11-23T07:13:08;96912.75;;;6.02;50.46
61434;BME280;47300;46.192;9.000;2022-11-23T07:15:35;96919.63;;;6.05;48.71
61434;BME280;47300;46.192;9.000;2022-11-23T07:18:01;96921.31;;;6.12;50.78
61434;BME280;47300;46.192;9.000;2022-11-23T07:20:26;96932.56;;;6.17;49.93
61434;BME280;47300;46.192;9.000;2022-11-23T07:23:06;96930.78;;;6.19;50.96
61434;BME280;47300;46.192;9.000;2022-11-23T07:25:33;96935.19;;;6.14;50.49
61434;BME280;47300;46.192;9.000;2022-11-23T07:28:01;96952.78;;;5.87;49.71
61434;BME280;47300;46.192;9.000;2022-11-23T07:30:29;96960.66;;;5.79;49.80
61434;BME280;47300;46.192;9.000;2022-11-23T07:32:59;96955.25;;;6.00;50.11
61434;BME280;47300;46.192;9.000;2022-11-23T07:35:25;96960.47;;;6.04;51.21
61434;BME280;47300;46.192;9.000;2022-11-23T07:37:50;96955.19;;;6.11;52.13
61434;BME280;47300;46.192;9.000;2022-11-23T07:40:16;96954.25;;;6.19;50.23
61434;BME280;47300;46.192;9.000;2022-11-23T07:42:41;96954.22;;;6.21;51.52
61434;BME280;47300;46.192;9.000;2022-11-23T07:45:07;96966.28;;;6.30;51.05
61434;BME280;47300;46.192;9.000;2022-11-23T07:47:32;96961.25;;;6.14;52.07
61434;BME280;47300;46.192;9.000;2022-11-23T07:49:58;96958.53;;;6.23;48.96
61434;BME280;47300;46.192;9.000;2022-11-23T07:52:23;96953.22;;;6.34;47.81
61434;BME280;47300;46.192;9.000;2022-11-23T07:54:48;96965.09;;;6.59;48.04
61434;BME280;47300;46.192;9.000;2022-11-23T07:57:14;96949.81;;;6.98;47.06
61434;BME280;47300;46.192;9.000;2022-11-23T07:59:39;96958.91;;;7.33;45.16
61434;BME280;47300;46.192;9.000;2022-11-23T08:02:05;96954.41;;;7.96;43.30
61434;BME280;47300;46.192;9.000;2022-11-23T08:04:30;96953.34;;;8.07;41.72
61434;BME280;47300;46.192;9.000;2022-11-23T08:06:55;96944.31;;;8.25;43.35
61434;BME280;47300;46.192;9.000;2022-11-23T08:09:21;96941.25;;;8.48;43.19
61434;BME280;47300;46.192;9.000;2022-11-23T08:11:47;96941.22;;;8.50;42.88
61434;BME280;47300;46.192;9.000;2022-11-23T08:14:12;96944.72;;;8.93;42.29
61434;BME280;47300;46.192;9.000;2022-11-23T08:16:38;96941.69;;;8.72;42.97
61434;BME280;47300;46.192;9.000;2022-11-23T08:19:03;96941.84;;;8.63;42.68
61434;BME280;47300;46.192;9.000;2022-11-23T08:21:28;96947.25;;;8.55;43.22
61434;BME280;47300;46.192;9.000;2022-11-23T08:23:54;96942.16;;;8.91;41.89
61434;BME280;47300;46.192;9.000;2022-11-23T08:26:19;96955.94;;;8.57;43.74
61434;BME280;47300;46.192;9.000;2022-11-23T08:28:44;96951.66;;;8.95;43.47
61434;BME280;47300;46.192;9.000;2022-11-23T08:31:10;96950.91;;;9.30;40.89
61434;BME280;47300;46.192;9.000;2022-11-23T08:33:37;96948.94;;;9.76;40.27
61434;BME280;47300;46.192;9.000;2022-11-23T08:36:04;96958.16;;;9.54;39.94
61434;BME280;47300;46.192;9.000;2022-11-23T08:38:29;96957.44;;;9.49;40.68
61434;BME280;47300;46.192;9.000;2022-11-23T08:41:02;96956.69;;;9.43;39.79
61434;BME280;47300;46.192;9.000;2022-11-23T08:43:29;96951.09;;;9.94;40.47
61434;BME280;47300;46.192;9.000;2022-11-23T08:45:56;96948.28;;;9.30;41.48
61434;BME280;47300;46.192;9.000;2022-11-23T08:48:22;96958.78;;;9.28;39.58
61434;BME280;47300;46.192;9.000;2022-11-23T08:50:47;96955.38;;;9.98;40.70
61434;BME280;47300;46.192;9.000;2022-11-23T08:53:13;96959.38;;;9.39;40.49
61434;BME280;47300;46.192;9.000;2022-11-23T08:55:38;96961.91;;;9.44;40.56
61434;BME280;47300;46.192;9.000;2022-11-23T08:58:04;96970.13;;;9.66;39.76
61434;BME280;47300;46.192;9.000;2022-11-23T09:00:29;96963.88;;;9.72;40.84
61434;BME280;47300;46.192;9.000;2022-11-23T09:02:55;96970.34;;;9.93;39.28
61434;BME280;47300;46.192;9.000;2022-11-23T09:05:25;96963.91;;;10.38;37.89
61434;BME280;47300;46.192;9.000;2022-11-23T09:07:50;96959.06;;;10.89;37.01
61434;BME280;47300;46.192;9.000;2022-11-23T09:10:16;96956.19;;;10.97;37.17
61434;BME280;47300;46.192;9.000;2022-11-23T09:12:41;96960.41;;;10.73;37.05
61434;BME280;47300;46.192;9.000;2022-11-23T09:15:07;96962.19;;;10.39;36.96
61434;BME280;47300;46.192;9.000;2022-11-23T09:17:33;96966.31;;;10.81;38.31
61434;BME280;47300;46.192;9.000;2022-11-23T09:19:58;96965.09;;;10.61;36.91
61434;BME280;47300;46.192;9.000;2022-11-23T09:22:24;96976.00;;;10.11;41.17
61434;BME280;47300;46.192;9.000;2022-11-23T09:24:49;96974.31;;;10.45;38.71
61434;BME280;47300;46.192;9.000;2022-11-23T09:27:14;96982.53;;;10.29;37.33
61434;BME280;47300;46.192;9.000;2022-11-23T09:29:40;96985.28;;;10.59;37.86
61434;BME280;47300;46.192;9.000;2022-11-23T09:32:05;96982.34;;;10.70;37.20
61434;BME280;47300;46.192;9.000;2022-11-23T09:34:30;96981.56;;;10.66;35.15
61434;BME280;47300;46.192;9.000;2022-11-23T09:36:56;96986.19;;;11.20;34.37
61434;BME280;47300;46.192;9.000;2022-11-23T09:39:21;96980.56;;;10.70;35.20
61434;BME280;47300;46.192;9.000;2022-11-23T09:47:46;96980.72;;;10.31;36.43
61434;BME280;47300;46.192;9.000;2022-11-23T09:50:21;96980.41;;;10.10;37.79
61434;BME280;47300;46.192;9.000;2022-11-23T09:52:49;96971.78;;;10.38;37.01
61434;BME280;47300;46.192;9.000;2022-11-23T09:55:39;96987.31;;;10.13;38.67
61434;BME280;47300;46.192;9.000;2022-11-23T09:58:06;96983.19;;;10.37;38.25
61434;BME280;47300;46.192;9.000;2022-11-23T10:00:43;96989.31;;;10.71;37.58
61434;BME280;47300;46.192;9.000;2022-11-23T10:03:13;96976.69;;;10.52;37.73
61434;BME280;47300;46.192;9.000;2022-11-23T10:06:28;96979.16;;;10.59;39.74
61434;BME280;47300;46.192;9.000;2022-11-23T10:11:40;96972.28;;;10.54;37.38
61434;BME280;47300;46.192;9.000;2022-11-23T10:14:13;96970.81;;;10.76;36.24
61434;BME280;47300;46.192;9.000;2022-11-23T10:16:57;96971.22;;;10.62;37.93
61434;BME280;47300;46.192;9.000;2022-11-23T10:22:21;96973.50;;;10.74;35.48
61434;BME280;47300;46.192;9.000;2022-11-23T10:24:51;96968.97;;;11.09;35.07
61434;BME280;47300;46.192;9.000;2022-11-23T10:27:19;96962.63;;;11.17;34.43
61434;BME280;47300;46.192;9.000;2022-11-23T10:29:45;96961.44;;;10.67;35.30
61434;BME280;47300;46.192;9.000;2022-11-23T10:32:31;96960.28;;;11.37;33.71
61434;BME280;47300;46.192;9.000;2022-11-23T10:37:41;96956.81;;;11.35;35.63
61434;BME280;47300;46.192;9.000;2022-11-23T10:40:16;96973.31;;;11.67;34.84
61434;BME280;47300;46.192;9.000;2022-11-23T10:42:55;96961.22;;;12.17;33.98
61434;BME280;47300;46.192;9.000;2022-11-23T10:45:25;96958.53;;;11.65;33.45
61434;BME280;47300;46.192;9.000;2022-11-23T10:47:53;96957.16;;;12.07;34.42
61434;BME280;47300;46.192;9.000;2022-11-23T10:50:33;96947.00;;;11.69;34.21
61434;BME280;47300;46.192;9.000;2022-11-23T10:55:44;96952.34;;;11.93;34.95
61434;BME280;47300;46.192;9.000;2022-11-23T10:58:43;96955.44;;;11.23;33.51
61434;BME280;47300;46.192;9.000;2022-11-23T11:01:15;96942.03;;;11.86;34.12
61434;BME280;47300;46.192;9.000;2022-11-23T11:03:40;96946.56;;;11.54;34.42
61434;BME280;47300;46.192;9.000;2022-11-23T11:06:06;96944.59;;;11.63;32.91
61434;BME280;47300;46.192;9.000;2022-11-23T11:08:47;96945.13;;;11.72;34.85
61434;BME280;47300;46.192;9.000;2022-11-23T11:11:38;96944.03;;;12.07;33.18
61434;BME280;47300;46.192;9.000;2022-11-23T11:16:36;96945.63;;;12.11;33.54
61434;BME280;47300;46.192;9.000;2022-11-23T11:19:25;96939.69;;;12.06;31.73
61434;BME280;47300;46.192;9.000;2022-11-23T11:21:51;96943.78;;;12.14;33.39
61434;BME280;47300;46.192;9.000;2022-11-23T11:24:20;96936.78;;;12.13;32.14
61434;BME280;47300;46.192;9.000;2022-11-23T11:26:49;96933.06;;;12.94;32.86
61434;BME280;47300;46.192;9.000;2022-11-23T11:34:54;96932.06;;;12.23;32.67
61434;BME280;47300;46.192;9.000;2022-11-23T11:38:01;96924.69;;;12.82;32.79
61434;BME280;47300;46.192;9.000;2022-11-23T11:40:48;96925.91;;;12.73;32.16
61434;BME280;47300;46.192;9.000;2022-11-23T11:43:28;96929.56;;;12.69;31.42
61434;BME280;47300;46.192;9.000;2022-11-23T11:46:01;96930.72;;;12.37;31.03
61434;BME280;47300;46.192;9.000;2022-11-23T11:48:42;96920.44;;;13.26;33.59
61434;BME280;47300;46.192;9.000;2022-11-23T11:51:18;96924.81;;;13.03;28.52
61434;BME280;47300;46.192;9.000;2022-11-23T11:56:46;96926.38;;;13.31;29.96
61434;BME280;47300;46.192;9.000;2022-11-23T11:59:28;96931.59;;;12.61;29.32
61434;BME280;47300;46.192;9.000;2022-11-23T12:02:24;96926.75;;;12.98;29.50
61434;BME280;47300;46.192;9.000;2022-11-23T12:04:58;96929.66;;;12.66;29.09
61434;BME280;47300;46.192;9.000;2022-11-23T12:07:34;96921.59;;;12.95;30.39
61434;BME280;47300;46.192;9.000;2022-11-23T12:10:08;96918.34;;;13.79;31.13
61434;BME280;47300;46.192;9.000;2022-11-23T12:12:35;96926.72;;;13.88;28.60
61434;BME280;47300;46.192;9.000;2022-11-23T12:15:02;96909.97;;;14.10;28.41
61434;BME280;47300;46.192;9.000;2022-11-23T12:18:14;96921.59;;;14.27;28.79
61434;BME280;47300;46.192;9.000;2022-11-23T12:21:03;96914.13;;;14.37;29.26
61434;BME280;47300;46.192;9.000;2022-11-23T12:26:16;96915.88;;;14.97;30.90
61434;BME280;47300;46.192;9.000;2022-11-23T12:29:09;96911.09;;;14.86;28.46
61434;BME280;47300;46.192;9.000;2022-11-23T12:31:49;96906.25;;;14.96;28.39
61434;BME280;47300;46.192;9.000;2022-11-23T12:34:36;96914.34;;;14.72;27.71
61434;BME280;47300;46.192;9.000;2022-11-23T12:37:13;96911.47;;;14.57;29.08
61434;BME280;47300;46.192;9.000;2022-11-23T12:45:11;96898.97;;;15.01;29.37
61434;BME280;47300;46.192;9.000;2022-11-23T12:50:20;96898.31;;;15.15;28.95
61434;BME280;47300;46.192;9.000;2022-11-23T12:56:17;96889.66;;;14.92;30.69
61434;BME280;47300;46.192;9.000;2022-11-23T12:58:45;96889.41;;;14.98;29.92
61434;BME280;47300;46.192;9.000;2022-11-23T13:01:26;96893.09;;;15.13;30.42
61434;BME280;47300;46.192;9.000;2022-11-23T13:07:28;96893.31;;;15.09;32.15
61434;BME280;47300;46.192;9.000;2022-11-23T13:15:18;96889.63;;;14.94;31.17
61434;BME280;47300;46.192;9.000;2022-11-23T13:20:43;96893.97;;;14.75;31.55
61434;BME280;47300;46.192;9.000;2022-11-23T13:23:13;96891.53;;;14.90;32.01
61434;BME280;47300;46.192;9.000;2022-11-23T13:25:38;96890.06;;;14.84;32.14
61434;BME280;47300;46.192;9.000;2022-11-23T13:28:26;96886.41;;;14.47;32.83
61434;BME280;47300;46.192;9.000;2022-11-23T13:33:36;96889.78;;;14.70;33.09
61434;BME280;47300;46.192;9.000;2022-11-23T13:36:02;96893.31;;;14.50;33.21
61434;BME280;47300;46.192;9.000;2022-11-23T13:38:35;96891.66;;;14.28;34.33
61434;BME280;47300;46.192;9.000;2022-11-23T13:41:01;96889.94;;;14.06;33.76
61434;BME280;47300;46.192;9.000;2022-11-23T13:43:31;96892.03;;;14.18;33.54
61434;BME280;47300;46.192;9.000;2022-11-23T13:46:22;96895.22;;;14.06;34.36
61434;BME280;47300;46.192;9.000;2022-11-23T13:48:54;96896.22;;;14.03;33.61
61434;BME280;47300;46.192;9.000;2022-11-23T13:51:37;96894.59;;;13.99;34.15
61434;BME280;47300;46.192;9.000;2022-11-23T13:54:23;96893.50;;;14.05;34.62
61434;BME280;47300;46.192;9.000;2022-11-23T13:57:00;96896.31;;;14.00;33.68
61434;BME280;47300;46.192;9.000;2022-11-23T13:59:31;96889.47;;;13.96;33.71
61434;BME280;47300;46.192;9.000;2022-11-23T14:04:35;96891.03;;;14.00;33.88
61434;BME280;47300;46.192;9.000;2022-11-23T14:09:55;96898.69;;;14.27;33.88
61434;BME280;47300;46.192;9.000;2022-11-23T14:15:18;96905.81;;;14.25;34.38
61434;BME280;47300;46.192;9.000;2022-11-23T14:20:31;96905.13;;;14.61;35.33
61434;BME280;47300;46.192;9.000;2022-11-23T14:25:54;96906.19;;;14.57;34.70
61434;BME280;47300;46.192;9.000;2022-11-23T14:29:10;96915.63;;;14.63;34.09